AFR607 SOCA-TFFF
Flight info
| Callsign | AFR607 |
|---|---|
| Flight time | 2h 0m |
| Altitude | 38000 |
| Route | REKIM1A REKIM UN674 BUXEX UA555 BGI A555 BORUS BORUS2X |
| Aircraft | A320/M-SDE2E3FGIJ1RWY/HB1 |
Departure
| Time | 2026-05-04 22:53 |
|---|---|
| Airport | Cayenne – Félix Eboué Airport (SOCA) |
Arrival
| Time | 2026-05-05 00:53 |
|---|---|
| Airport | Martinique Aimé Césaire International Airport (TFFF) |
| Time | Latitude | Longitude | Altitude | Speed | Heading |
|---|---|---|---|---|---|
| 2026-05-04 22:09 | 4.82153 | -52.36367 | 29 ft | 0 kts | 335° |
| 2026-05-04 22:44 | 4.82152 | -52.36367 | 29 ft | 2 kts | 335° |
| 2026-05-04 22:44 | 4.82130 | -52.36355 | 29 ft | 4 kts | 331° |
| 2026-05-04 22:44 | 4.82110 | -52.36345 | 29 ft | 4 kts | 339° |
| 2026-05-04 22:45 | 4.82085 | -52.36341 | 29 ft | 4 kts | 15° |
| 2026-05-04 22:45 | 4.82063 | -52.36357 | 29 ft | 0 kts | 66° |
| 2026-05-04 22:48 | 4.82067 | -52.36349 | 29 ft | 2 kts | 64° |
| 2026-05-04 22:48 | 4.82078 | -52.36325 | 29 ft | 6 kts | 66° |
| 2026-05-04 22:48 | 4.82091 | -52.36287 | 29 ft | 5 kts | 90° |
| 2026-05-04 22:48 | 4.82064 | -52.36258 | 29 ft | 9 kts | 151° |
| 2026-05-04 22:49 | 4.81995 | -52.36225 | 29 ft | 10 kts | 160° |
| 2026-05-04 22:49 | 4.81940 | -52.36255 | 29 ft | 13 kts | 238° |
| 2026-05-04 22:49 | 4.81899 | -52.36342 | 29 ft | 13 kts | 245° |
| 2026-05-04 22:49 | 4.81862 | -52.36421 | 29 ft | 12 kts | 245° |
| 2026-05-04 22:50 | 4.81828 | -52.36495 | 29 ft | 13 kts | 245° |
| 2026-05-04 22:50 | 4.81776 | -52.36609 | 28 ft | 22 kts | 245° |
| 2026-05-04 22:50 | 4.81706 | -52.36760 | 28 ft | 25 kts | 245° |
| 2026-05-04 22:50 | 4.81649 | -52.36885 | 28 ft | 27 kts | 245° |
| 2026-05-04 22:51 | 4.81616 | -52.36956 | 28 ft | 27 kts | 245° |
| 2026-05-04 22:51 | 4.81534 | -52.37135 | 28 ft | 29 kts | 245° |
| 2026-05-04 22:51 | 4.81472 | -52.37271 | 27 ft | 18 kts | 245° |
| 2026-05-04 22:52 | 4.81443 | -52.37366 | 27 ft | 12 kts | 275° |
| 2026-05-04 22:52 | 4.81433 | -52.37410 | 27 ft | 5 kts | 210° |
| 2026-05-04 22:52 | 4.81412 | -52.37403 | 27 ft | 1 kts | 130° |
| 2026-05-04 22:52 | 4.81427 | -52.37366 | 27 ft | 18 kts | 64° |
| 2026-05-04 22:53 | 4.81574 | -52.37046 | 28 ft | 87 kts | 65° |
| 2026-05-04 22:53 | 4.81917 | -52.36299 | 29 ft | 146 kts | 65° |
| 2026-05-04 22:53 | 4.82384 | -52.35284 | 416 ft | 163 kts | 65° |
| 2026-05-04 22:53 | 4.82826 | -52.34220 | 1092 ft | 168 kts | 70° |
| 2026-05-04 22:54 | 4.83122 | -52.33110 | 1914 ft | 167 kts | 75° |
| 2026-05-04 22:54 | 4.83309 | -52.32372 | 2425 ft | 166 kts | 75° |
| 2026-05-04 22:54 | 4.83592 | -52.31281 | 3146 ft | 163 kts | 74° |
| 2026-05-04 22:54 | 4.83893 | -52.30132 | 3561 ft | 181 kts | 74° |
| 2026-05-04 22:55 | 4.84233 | -52.28836 | 3859 ft | 205 kts | 74° |
| 2026-05-04 22:55 | 4.84615 | -52.27367 | 4223 ft | 230 kts | 75° |
| 2026-05-04 22:55 | 4.85039 | -52.25739 | 4715 ft | 253 kts | 75° |
| 2026-05-04 22:55 | 4.85489 | -52.24000 | 5454 ft | 261 kts | 76° |
| 2026-05-04 22:56 | 4.85950 | -52.22217 | 6295 ft | 267 kts | 76° |
| 2026-05-04 22:56 | 4.86585 | -52.20462 | 7128 ft | 272 kts | 59° |
| 2026-05-04 22:56 | 4.87946 | -52.19120 | 7922 ft | 282 kts | 32° |
| 2026-05-04 22:56 | 4.89835 | -52.18527 | 8714 ft | 293 kts | 5° |
| 2026-05-04 22:57 | 4.91898 | -52.18626 | 9524 ft | 299 kts | 358° |
| 2026-05-04 22:57 | 4.93997 | -52.18799 | 10222 ft | 309 kts | 358° |
| 2026-05-04 22:57 | 4.96224 | -52.18983 | 10462 ft | 332 kts | 358° |
| 2026-05-04 22:57 | 4.98582 | -52.19174 | 10921 ft | 346 kts | 358° |
| 2026-05-04 22:58 | 5.01004 | -52.19366 | 11592 ft | 351 kts | 359° |
| 2026-05-04 22:58 | 5.03452 | -52.19558 | 12309 ft | 355 kts | 359° |
| 2026-05-04 22:58 | 5.05929 | -52.19749 | 13013 ft | 359 kts | 359° |
| 2026-05-04 22:58 | 5.07584 | -52.19876 | 13477 ft | 361 kts | 359° |
| 2026-05-04 22:59 | 5.10881 | -52.20753 | 14282 ft | 376 kts | 335° |
| 2026-05-04 22:59 | 5.12327 | -52.21731 | 14673 ft | 383 kts | 321° |
| 2026-05-04 22:59 | 5.14193 | -52.23661 | 15303 ft | 387 kts | 315° |
| 2026-05-04 22:59 | 5.16602 | -52.26304 | 16143 ft | 389 kts | 314° |
| 2026-05-04 23:00 | 5.18429 | -52.28320 | 16762 ft | 391 kts | 314° |
| 2026-05-04 23:00 | 5.20266 | -52.30343 | 17352 ft | 394 kts | 314° |
| 2026-05-04 23:00 | 5.21517 | -52.31716 | 17761 ft | 395 kts | 315° |
| 2026-05-04 23:00 | 5.23383 | -52.33757 | 18322 ft | 398 kts | 315° |
| 2026-05-04 23:01 | 5.25260 | -52.35805 | 18834 ft | 400 kts | 314° |
| 2026-05-04 23:01 | 5.27146 | -52.37862 | 19356 ft | 402 kts | 314° |
| 2026-05-04 23:01 | 5.29042 | -52.39930 | 19863 ft | 404 kts | 314° |
| 2026-05-04 23:01 | 5.30920 | -52.41981 | 20378 ft | 406 kts | 314° |
| 2026-05-04 23:02 | 5.32867 | -52.44106 | 20843 ft | 409 kts | 313° |
| 2026-05-04 23:02 | 5.34767 | -52.46183 | 21387 ft | 410 kts | 313° |
| 2026-05-04 23:02 | 5.36701 | -52.48300 | 21895 ft | 412 kts | 313° |
| 2026-05-04 23:02 | 5.38642 | -52.50426 | 22422 ft | 414 kts | 312° |
| 2026-05-04 23:03 | 5.40591 | -52.52556 | 22944 ft | 415 kts | 312° |
| 2026-05-04 23:03 | 5.42547 | -52.54696 | 23465 ft | 417 kts | 313° |
| 2026-05-04 23:03 | 5.44513 | -52.56845 | 23890 ft | 418 kts | 313° |
| 2026-05-04 23:03 | 5.46485 | -52.58998 | 24301 ft | 420 kts | 313° |
| 2026-05-04 23:04 | 5.48463 | -52.61157 | 24709 ft | 421 kts | 313° |
| 2026-05-04 23:04 | 5.50445 | -52.63322 | 25104 ft | 422 kts | 312° |
| 2026-05-04 23:04 | 5.52434 | -52.65496 | 25508 ft | 423 kts | 312° |
| 2026-05-04 23:04 | 5.54427 | -52.67675 | 25941 ft | 423 kts | 312° |
| 2026-05-04 23:05 | 5.56416 | -52.69852 | 26383 ft | 423 kts | 311° |
| 2026-05-04 23:05 | 5.58407 | -52.72031 | 26750 ft | 425 kts | 312° |
| 2026-05-04 23:05 | 5.60409 | -52.74221 | 27119 ft | 426 kts | 311° |
| 2026-05-04 23:05 | 5.62421 | -52.76420 | 27498 ft | 427 kts | 311° |
| 2026-05-04 23:06 | 5.64434 | -52.78621 | 27833 ft | 429 kts | 311° |
| 2026-05-04 23:06 | 5.66461 | -52.80836 | 28191 ft | 431 kts | 311° |
| 2026-05-04 23:06 | 5.68497 | -52.83065 | 28565 ft | 433 kts | 311° |
| 2026-05-04 23:06 | 5.70532 | -52.85295 | 28908 ft | 434 kts | 311° |
| 2026-05-04 23:07 | 5.72571 | -52.87532 | 29244 ft | 435 kts | 311° |
| 2026-05-04 23:07 | 5.74618 | -52.89779 | 29570 ft | 437 kts | 311° |
| 2026-05-04 23:07 | 5.76646 | -52.92002 | 29888 ft | 438 kts | 311° |
| 2026-05-04 23:07 | 5.78712 | -52.94263 | 30174 ft | 440 kts | 311° |
| 2026-05-04 23:08 | 5.80785 | -52.96534 | 30406 ft | 442 kts | 311° |
| 2026-05-04 23:08 | 5.82867 | -52.98816 | 30616 ft | 445 kts | 311° |
| 2026-05-04 23:08 | 5.84964 | -53.01109 | 30819 ft | 448 kts | 311° |
| 2026-05-04 23:08 | 5.87080 | -53.03422 | 31006 ft | 451 kts | 311° |
| 2026-05-04 23:09 | 5.89209 | -53.05748 | 31195 ft | 454 kts | 311° |
| 2026-05-04 23:09 | 5.91352 | -53.08088 | 31388 ft | 456 kts | 311° |
| 2026-05-04 23:09 | 5.93508 | -53.10446 | 31577 ft | 459 kts | 311° |
| 2026-05-04 23:09 | 5.95674 | -53.12819 | 31831 ft | 460 kts | 310° |
| 2026-05-04 23:10 | 5.97834 | -53.15193 | 32092 ft | 461 kts | 310° |
| 2026-05-04 23:10 | 5.99999 | -53.17577 | 32337 ft | 462 kts | 310° |
| 2026-05-04 23:10 | 6.02140 | -53.19932 | 32581 ft | 463 kts | 310° |
| 2026-05-04 23:10 | 6.04317 | -53.22322 | 32826 ft | 464 kts | 310° |
| 2026-05-04 23:11 | 6.06502 | -53.24719 | 33083 ft | 466 kts | 310° |
| 2026-05-04 23:11 | 6.08692 | -53.27119 | 33363 ft | 466 kts | 310° |
| 2026-05-04 23:11 | 6.10889 | -53.29521 | 33682 ft | 465 kts | 310° |
| 2026-05-04 23:11 | 6.13072 | -53.31915 | 34020 ft | 464 kts | 310° |
| 2026-05-04 23:12 | 6.15251 | -53.34307 | 34293 ft | 464 kts | 310° |
| 2026-05-04 23:12 | 6.17427 | -53.36693 | 34576 ft | 463 kts | 310° |
| 2026-05-04 23:12 | 6.19598 | -53.39075 | 34865 ft | 461 kts | 310° |
| 2026-05-04 23:12 | 6.21765 | -53.41450 | 35152 ft | 461 kts | 310° |
| 2026-05-04 23:13 | 6.23928 | -53.43822 | 35450 ft | 459 kts | 310° |
| 2026-05-04 23:13 | 6.26082 | -53.46190 | 35764 ft | 459 kts | 310° |
| 2026-05-04 23:13 | 6.28222 | -53.48545 | 36038 ft | 455 kts | 310° |
| 2026-05-04 23:13 | 6.30354 | -53.50890 | 36267 ft | 454 kts | 310° |
| 2026-05-04 23:14 | 6.32482 | -53.53233 | 36505 ft | 453 kts | 309° |
| 2026-05-04 23:14 | 6.34607 | -53.55576 | 36755 ft | 452 kts | 310° |
| 2026-05-04 23:14 | 6.36730 | -53.57914 | 37009 ft | 453 kts | 310° |
| 2026-05-04 23:14 | 6.38851 | -53.60247 | 37296 ft | 452 kts | 310° |
| 2026-05-04 23:15 | 6.40971 | -53.62572 | 37568 ft | 450 kts | 310° |
| 2026-05-04 23:15 | 6.43081 | -53.64884 | 37806 ft | 448 kts | 310° |
| 2026-05-04 23:15 | 6.45185 | -53.67184 | 37953 ft | 444 kts | 309° |
| 2026-05-04 23:15 | 6.47269 | -53.69477 | 37974 ft | 444 kts | 309° |
| 2026-05-04 23:16 | 6.51429 | -53.74071 | 37991 ft | 443 kts | 309° |
| 2026-05-04 23:16 | 6.55569 | -53.78629 | 37976 ft | 441 kts | 310° |
| 2026-05-04 23:17 | 6.59693 | -53.83141 | 37978 ft | 440 kts | 309° |
| 2026-05-04 23:17 | 6.63822 | -53.87684 | 37973 ft | 439 kts | 310° |
| 2026-05-04 23:18 | 6.67966 | -53.92234 | 37982 ft | 440 kts | 309° |
| 2026-05-04 23:18 | 6.72117 | -53.96807 | 37987 ft | 443 kts | 309° |
| 2026-05-04 23:19 | 6.76444 | -54.01215 | 38003 ft | 445 kts | 316° |
| 2026-05-04 23:19 | 6.81174 | -54.05220 | 38017 ft | 443 kts | 317° |
| 2026-05-04 23:20 | 6.85872 | -54.09208 | 38011 ft | 440 kts | 317° |
| 2026-05-04 23:20 | 6.90496 | -54.13118 | 38011 ft | 437 kts | 317° |
| 2026-05-04 23:21 | 6.95171 | -54.17067 | 38003 ft | 439 kts | 317° |
| 2026-05-04 23:21 | 6.99824 | -54.21012 | 38001 ft | 436 kts | 317° |
| 2026-05-04 23:22 | 7.04463 | -54.24949 | 38000 ft | 435 kts | 317° |
| 2026-05-04 23:22 | 7.09118 | -54.28900 | 38006 ft | 439 kts | 316° |
| 2026-05-04 23:23 | 7.13789 | -54.32860 | 38017 ft | 438 kts | 316° |
| 2026-05-04 23:23 | 7.18433 | -54.36803 | 38001 ft | 435 kts | 316° |
| 2026-05-04 23:24 | 7.23051 | -54.40721 | 38002 ft | 434 kts | 316° |
| 2026-05-04 23:24 | 7.27655 | -54.44638 | 37998 ft | 433 kts | 316° |
| 2026-05-04 23:25 | 7.32221 | -54.48530 | 38010 ft | 433 kts | 316° |
| 2026-05-04 23:25 | 7.36842 | -54.52448 | 37997 ft | 435 kts | 316° |
| 2026-05-04 23:26 | 7.41469 | -54.56370 | 38002 ft | 434 kts | 316° |
| 2026-05-04 23:26 | 7.46090 | -54.60301 | 38005 ft | 434 kts | 316° |
| 2026-05-04 23:27 | 7.50695 | -54.64244 | 38014 ft | 434 kts | 316° |
| 2026-05-04 23:27 | 7.55309 | -54.68166 | 38015 ft | 433 kts | 316° |
| 2026-05-04 23:28 | 7.59922 | -54.72076 | 38014 ft | 433 kts | 316° |
| 2026-05-04 23:28 | 7.64526 | -54.75988 | 38013 ft | 433 kts | 316° |
| 2026-05-04 23:29 | 7.69128 | -54.79903 | 38013 ft | 433 kts | 316° |
| 2026-05-04 23:29 | 7.73726 | -54.83818 | 38017 ft | 432 kts | 316° |
| 2026-05-04 23:30 | 7.78310 | -54.87735 | 38019 ft | 432 kts | 316° |
| 2026-05-04 23:30 | 7.82871 | -54.91618 | 38022 ft | 431 kts | 316° |
| 2026-05-04 23:31 | 7.87463 | -54.95526 | 38023 ft | 431 kts | 316° |
| 2026-05-04 23:31 | 7.92048 | -54.99436 | 38019 ft | 431 kts | 316° |
| 2026-05-04 23:32 | 7.96630 | -55.03342 | 38023 ft | 431 kts | 316° |
| 2026-05-04 23:32 | 8.01200 | -55.07250 | 38023 ft | 430 kts | 316° |
| 2026-05-04 23:33 | 8.05761 | -55.11156 | 38021 ft | 430 kts | 316° |
| 2026-05-04 23:33 | 8.10328 | -55.15059 | 38029 ft | 430 kts | 316° |
| 2026-05-04 23:34 | 8.14868 | -55.18928 | 38027 ft | 430 kts | 316° |
| 2026-05-04 23:34 | 8.19431 | -55.22819 | 38022 ft | 429 kts | 316° |
| 2026-05-04 23:35 | 8.23995 | -55.26720 | 38024 ft | 430 kts | 316° |
| 2026-05-04 23:35 | 8.28572 | -55.30623 | 38026 ft | 431 kts | 316° |
| 2026-05-04 23:36 | 8.33155 | -55.34529 | 38027 ft | 431 kts | 316° |
| 2026-05-04 23:36 | 8.37689 | -55.38419 | 38032 ft | 429 kts | 316° |
| 2026-05-04 23:37 | 8.42228 | -55.42305 | 38026 ft | 425 kts | 315° |
| 2026-05-04 23:37 | 8.46739 | -55.46170 | 38016 ft | 425 kts | 316° |
| 2026-05-04 23:38 | 8.51239 | -55.50032 | 37987 ft | 422 kts | 316° |
| 2026-05-04 23:38 | 8.55693 | -55.53842 | 37983 ft | 422 kts | 316° |
| 2026-05-04 23:39 | 8.60175 | -55.57683 | 37991 ft | 423 kts | 316° |
| 2026-05-04 23:39 | 8.64682 | -55.61539 | 37996 ft | 424 kts | 316° |
| 2026-05-04 23:40 | 8.69187 | -55.65404 | 38003 ft | 425 kts | 316° |
| 2026-05-04 23:40 | 8.73702 | -55.69272 | 38007 ft | 425 kts | 316° |
| 2026-05-04 23:41 | 8.78221 | -55.73146 | 38024 ft | 426 kts | 316° |
| 2026-05-04 23:41 | 8.82726 | -55.77019 | 38027 ft | 425 kts | 316° |
| 2026-05-04 23:42 | 8.87242 | -55.80884 | 38030 ft | 424 kts | 316° |
| 2026-05-04 23:42 | 8.91745 | -55.84749 | 38029 ft | 424 kts | 316° |
| 2026-05-04 23:43 | 8.96204 | -55.88594 | 38030 ft | 424 kts | 316° |
| 2026-05-04 23:43 | 9.00697 | -55.92456 | 38030 ft | 424 kts | 316° |
| 2026-05-04 23:44 | 9.05192 | -55.96322 | 38033 ft | 424 kts | 316° |
| 2026-05-04 23:44 | 9.09688 | -56.00181 | 38034 ft | 423 kts | 316° |
| 2026-05-04 23:45 | 9.14175 | -56.04039 | 38033 ft | 423 kts | 316° |
| 2026-05-04 23:45 | 9.18667 | -56.07908 | 38029 ft | 423 kts | 316° |
| 2026-05-04 23:46 | 9.22404 | -56.11111 | 38029 ft | 423 kts | 316° |
| 2026-05-04 23:46 | 9.26896 | -56.14983 | 38031 ft | 424 kts | 316° |
| 2026-05-04 23:47 | 9.31385 | -56.18858 | 38031 ft | 424 kts | 316° |
| 2026-05-04 23:47 | 9.35874 | -56.22727 | 38029 ft | 423 kts | 316° |
| 2026-05-04 23:48 | 9.40363 | -56.26591 | 38029 ft | 424 kts | 316° |
| 2026-05-04 23:48 | 9.44849 | -56.30459 | 38036 ft | 424 kts | 316° |
| 2026-05-04 23:49 | 9.49336 | -56.34329 | 38030 ft | 423 kts | 317° |
| 2026-05-04 23:49 | 9.53795 | -56.38171 | 38030 ft | 423 kts | 317° |
| 2026-05-04 23:50 | 9.58278 | -56.42038 | 38028 ft | 423 kts | 317° |
| 2026-05-04 23:50 | 9.62765 | -56.45911 | 38034 ft | 423 kts | 317° |
| 2026-05-04 23:51 | 9.67237 | -56.49779 | 38031 ft | 423 kts | 317° |
| 2026-05-04 23:51 | 9.71713 | -56.53649 | 38031 ft | 423 kts | 317° |
| 2026-05-04 23:52 | 9.76189 | -56.57520 | 38036 ft | 423 kts | 317° |
| 2026-05-04 23:52 | 9.80660 | -56.61398 | 38040 ft | 423 kts | 317° |
| 2026-05-04 23:53 | 9.85142 | -56.65271 | 38034 ft | 424 kts | 317° |
| 2026-05-04 23:53 | 9.89635 | -56.69156 | 38033 ft | 424 kts | 317° |
| 2026-05-04 23:54 | 9.94132 | -56.73043 | 38034 ft | 424 kts | 317° |
| 2026-05-04 23:54 | 9.98625 | -56.76929 | 38039 ft | 424 kts | 317° |
| 2026-05-04 23:55 | 10.03112 | -56.80826 | 38035 ft | 425 kts | 317° |
| 2026-05-04 23:56 | 10.09821 | -56.86643 | 38034 ft | 425 kts | 317° |
| 2026-05-04 23:56 | 10.14318 | -56.90536 | 38045 ft | 425 kts | 317° |
| 2026-05-04 23:57 | 10.18815 | -56.94442 | 38036 ft | 425 kts | 317° |
| 2026-05-04 23:57 | 10.23319 | -56.98351 | 38035 ft | 426 kts | 317° |
| 2026-05-04 23:58 | 10.27825 | -57.02263 | 38036 ft | 426 kts | 317° |
| 2026-05-04 23:58 | 10.32328 | -57.06171 | 38032 ft | 426 kts | 317° |
| 2026-05-04 23:59 | 10.36832 | -57.10075 | 38029 ft | 426 kts | 318° |
| 2026-05-04 23:59 | 10.41339 | -57.13991 | 38031 ft | 427 kts | 317° |
| 2026-05-05 00:00 | 10.45846 | -57.17922 | 38034 ft | 426 kts | 317° |
| 2026-05-05 00:00 | 10.50352 | -57.21851 | 38038 ft | 427 kts | 318° |
| 2026-05-05 00:01 | 10.54874 | -57.25778 | 38035 ft | 429 kts | 318° |
| 2026-05-05 00:01 | 10.59388 | -57.29703 | 38032 ft | 429 kts | 318° |
| 2026-05-05 00:02 | 10.63930 | -57.33652 | 38031 ft | 430 kts | 318° |
| 2026-05-05 00:02 | 10.68460 | -57.37612 | 38035 ft | 430 kts | 318° |
| 2026-05-05 00:03 | 10.73001 | -57.41572 | 38034 ft | 430 kts | 318° |
| 2026-05-05 00:03 | 10.77549 | -57.45535 | 38037 ft | 430 kts | 318° |
| 2026-05-05 00:04 | 10.82090 | -57.49498 | 38036 ft | 430 kts | 318° |
| 2026-05-05 00:04 | 10.86634 | -57.53465 | 38038 ft | 431 kts | 319° |
| 2026-05-05 00:05 | 10.91187 | -57.57443 | 38026 ft | 431 kts | 319° |
| 2026-05-05 00:05 | 10.95748 | -57.61429 | 38030 ft | 432 kts | 319° |
| 2026-05-05 00:06 | 11.00309 | -57.65410 | 38030 ft | 432 kts | 319° |
| 2026-05-05 00:06 | 11.04838 | -57.69369 | 38031 ft | 432 kts | 318° |
| 2026-05-05 00:07 | 11.09397 | -57.73354 | 38031 ft | 432 kts | 318° |
| 2026-05-05 00:07 | 11.13955 | -57.77340 | 38036 ft | 432 kts | 318° |
| 2026-05-05 00:08 | 11.18520 | -57.81338 | 38041 ft | 432 kts | 319° |
| 2026-05-05 00:08 | 11.23083 | -57.85329 | 38035 ft | 433 kts | 319° |
| 2026-05-05 00:09 | 11.27647 | -57.89328 | 38040 ft | 433 kts | 319° |
| 2026-05-05 00:09 | 11.32213 | -57.93332 | 38045 ft | 433 kts | 319° |
| 2026-05-05 00:10 | 11.36790 | -57.97329 | 38041 ft | 434 kts | 319° |
| 2026-05-05 00:10 | 11.41369 | -58.01343 | 38052 ft | 434 kts | 319° |
| 2026-05-05 00:11 | 11.45937 | -58.05363 | 38056 ft | 434 kts | 319° |
| 2026-05-05 00:11 | 11.50510 | -58.09391 | 38055 ft | 434 kts | 319° |
| 2026-05-05 00:12 | 11.55088 | -58.13408 | 38057 ft | 434 kts | 319° |
| 2026-05-05 00:12 | 11.59670 | -58.17430 | 38052 ft | 434 kts | 319° |
| 2026-05-05 00:13 | 11.64253 | -58.21448 | 38045 ft | 434 kts | 319° |
| 2026-05-05 00:13 | 11.68838 | -58.25482 | 38048 ft | 435 kts | 319° |
| 2026-05-05 00:14 | 11.73419 | -58.29516 | 38052 ft | 435 kts | 319° |
| 2026-05-05 00:14 | 11.78003 | -58.33557 | 38052 ft | 436 kts | 319° |
| 2026-05-05 00:15 | 11.82589 | -58.37596 | 38060 ft | 435 kts | 319° |
| 2026-05-05 00:15 | 11.87170 | -58.41637 | 38057 ft | 435 kts | 320° |
| 2026-05-05 00:16 | 11.91720 | -58.45649 | 38054 ft | 435 kts | 320° |
| 2026-05-05 00:16 | 11.96318 | -58.49700 | 38055 ft | 436 kts | 320° |
| 2026-05-05 00:17 | 12.00909 | -58.53746 | 38054 ft | 436 kts | 320° |
| 2026-05-05 00:17 | 12.05501 | -58.57797 | 38050 ft | 437 kts | 320° |
| 2026-05-05 00:18 | 12.10101 | -58.61858 | 38056 ft | 437 kts | 320° |
| 2026-05-05 00:18 | 12.14692 | -58.65924 | 38063 ft | 437 kts | 320° |
| 2026-05-05 00:19 | 12.19283 | -58.69996 | 38063 ft | 437 kts | 320° |
| 2026-05-05 00:19 | 12.23887 | -58.74065 | 38064 ft | 437 kts | 320° |
| 2026-05-05 00:20 | 12.28491 | -58.78127 | 38064 ft | 437 kts | 320° |
| 2026-05-05 00:20 | 12.33089 | -58.82199 | 38061 ft | 437 kts | 320° |
| 2026-05-05 00:21 | 12.37662 | -58.86255 | 38063 ft | 437 kts | 320° |
| 2026-05-05 00:21 | 12.42256 | -58.90334 | 38063 ft | 437 kts | 320° |
| 2026-05-05 00:22 | 12.46848 | -58.94405 | 38060 ft | 437 kts | 320° |
| 2026-05-05 00:22 | 12.51451 | -58.98489 | 38063 ft | 437 kts | 320° |
| 2026-05-05 00:23 | 12.56048 | -59.02568 | 38066 ft | 436 kts | 320° |
| 2026-05-05 00:23 | 12.60606 | -59.06613 | 38049 ft | 437 kts | 320° |
| 2026-05-05 00:24 | 12.65203 | -59.10693 | 38054 ft | 437 kts | 320° |
| 2026-05-05 00:24 | 12.69800 | -59.14779 | 38054 ft | 437 kts | 320° |
| 2026-05-05 00:25 | 12.74390 | -59.18870 | 38035 ft | 438 kts | 320° |
| 2026-05-05 00:25 | 12.78984 | -59.22964 | 38038 ft | 438 kts | 320° |
| 2026-05-05 00:26 | 12.83596 | -59.27053 | 38036 ft | 437 kts | 320° |
| 2026-05-05 00:26 | 12.88190 | -59.31138 | 38030 ft | 438 kts | 320° |
| 2026-05-05 00:27 | 12.92791 | -59.35240 | 38036 ft | 438 kts | 320° |
| 2026-05-05 00:27 | 12.96609 | -59.38649 | 38032 ft | 438 kts | 320° |
| 2026-05-05 00:28 | 13.01202 | -59.42752 | 38031 ft | 438 kts | 320° |
| 2026-05-05 00:28 | 13.05807 | -59.46857 | 38029 ft | 439 kts | 320° |
| 2026-05-05 00:29 | 13.10339 | -59.51048 | 38035 ft | 439 kts | 317° |
| 2026-05-05 00:29 | 13.14679 | -59.55459 | 38032 ft | 439 kts | 315° |
| 2026-05-05 00:30 | 13.18981 | -59.59917 | 38031 ft | 439 kts | 316° |
| 2026-05-05 00:30 | 13.23322 | -59.64336 | 38039 ft | 440 kts | 316° |
| 2026-05-05 00:31 | 13.27707 | -59.68732 | 38046 ft | 440 kts | 317° |
| 2026-05-05 00:31 | 13.32082 | -59.73130 | 38051 ft | 440 kts | 316° |
| 2026-05-05 00:32 | 13.36451 | -59.77535 | 38051 ft | 440 kts | 316° |
| 2026-05-05 00:32 | 13.38635 | -59.79740 | 37838 ft | 440 kts | 316° |
| 2026-05-05 00:32 | 13.40788 | -59.81918 | 37421 ft | 440 kts | 316° |
| 2026-05-05 00:32 | 13.42973 | -59.84131 | 36666 ft | 441 kts | 316° |
| 2026-05-05 00:33 | 13.45162 | -59.86345 | 35884 ft | 443 kts | 316° |
| 2026-05-05 00:33 | 13.47396 | -59.88600 | 35121 ft | 445 kts | 316° |
| 2026-05-05 00:33 | 13.49567 | -59.90793 | 34628 ft | 440 kts | 316° |
| 2026-05-05 00:33 | 13.51741 | -59.92993 | 34061 ft | 437 kts | 316° |
| 2026-05-05 00:34 | 13.53902 | -59.95178 | 33458 ft | 434 kts | 316° |
| 2026-05-05 00:34 | 13.56042 | -59.97341 | 32911 ft | 430 kts | 316° |
| 2026-05-05 00:34 | 13.58168 | -59.99493 | 32361 ft | 426 kts | 316° |
| 2026-05-05 00:34 | 13.60269 | -60.01623 | 31831 ft | 422 kts | 316° |
| 2026-05-05 00:35 | 13.62355 | -60.03737 | 31283 ft | 419 kts | 317° |
| 2026-05-05 00:35 | 13.64425 | -60.05829 | 30759 ft | 416 kts | 317° |
| 2026-05-05 00:35 | 13.66484 | -60.07912 | 30242 ft | 414 kts | 317° |
| 2026-05-05 00:35 | 13.68530 | -60.09982 | 29653 ft | 411 kts | 317° |
| 2026-05-05 00:36 | 13.70554 | -60.12032 | 29172 ft | 406 kts | 317° |
| 2026-05-05 00:36 | 13.72556 | -60.14064 | 28673 ft | 403 kts | 317° |
| 2026-05-05 00:36 | 13.74542 | -60.16077 | 28199 ft | 399 kts | 317° |
| 2026-05-05 00:36 | 13.76505 | -60.18066 | 27737 ft | 395 kts | 317° |
| 2026-05-05 00:37 | 13.78456 | -60.20046 | 27278 ft | 392 kts | 317° |
| 2026-05-05 00:37 | 13.80389 | -60.22009 | 26824 ft | 389 kts | 317° |
| 2026-05-05 00:37 | 13.82310 | -60.23960 | 26373 ft | 387 kts | 317° |
| 2026-05-05 00:37 | 13.84197 | -60.25877 | 25928 ft | 384 kts | 317° |
| 2026-05-05 00:38 | 13.86119 | -60.27828 | 25462 ft | 382 kts | 317° |
| 2026-05-05 00:38 | 13.87978 | -60.29716 | 24991 ft | 380 kts | 317° |
| 2026-05-05 00:38 | 13.89856 | -60.31625 | 24518 ft | 379 kts | 317° |
| 2026-05-05 00:38 | 13.91734 | -60.33532 | 24021 ft | 379 kts | 317° |
| 2026-05-05 00:39 | 13.93611 | -60.35438 | 23523 ft | 379 kts | 317° |
| 2026-05-05 00:39 | 13.95491 | -60.37347 | 22964 ft | 379 kts | 317° |
| 2026-05-05 00:39 | 13.97358 | -60.39243 | 22466 ft | 376 kts | 317° |
| 2026-05-05 00:39 | 13.99216 | -60.41133 | 21970 ft | 374 kts | 317° |
| 2026-05-05 00:40 | 14.01061 | -60.43013 | 21479 ft | 373 kts | 317° |
| 2026-05-05 00:40 | 14.02901 | -60.44890 | 20992 ft | 371 kts | 317° |
| 2026-05-05 00:40 | 14.04626 | -60.46870 | 20504 ft | 371 kts | 308° |
| 2026-05-05 00:40 | 14.05961 | -60.49153 | 20015 ft | 372 kts | 301° |
| 2026-05-05 00:41 | 14.07196 | -60.51494 | 19519 ft | 371 kts | 301° |
| 2026-05-05 00:41 | 14.08427 | -60.53831 | 19036 ft | 371 kts | 300° |
| 2026-05-05 00:41 | 14.09654 | -60.56161 | 18553 ft | 370 kts | 300° |
| 2026-05-05 00:41 | 14.10880 | -60.58490 | 18038 ft | 369 kts | 300° |
| 2026-05-05 00:42 | 14.12101 | -60.60812 | 17548 ft | 367 kts | 300° |
| 2026-05-05 00:42 | 14.13315 | -60.63117 | 17079 ft | 365 kts | 301° |
| 2026-05-05 00:42 | 14.14523 | -60.65402 | 16610 ft | 362 kts | 300° |
| 2026-05-05 00:42 | 14.15727 | -60.67676 | 16114 ft | 361 kts | 300° |
| 2026-05-05 00:43 | 14.16935 | -60.69960 | 15513 ft | 364 kts | 300° |
| 2026-05-05 00:43 | 14.18270 | -60.72167 | 15017 ft | 362 kts | 312° |
| 2026-05-05 00:43 | 14.20125 | -60.73891 | 14523 ft | 358 kts | 326° |
| 2026-05-05 00:43 | 14.22160 | -60.75381 | 14045 ft | 359 kts | 327° |
| 2026-05-05 00:44 | 14.24199 | -60.76863 | 13526 ft | 359 kts | 327° |
| 2026-05-05 00:44 | 14.26240 | -60.78342 | 13030 ft | 357 kts | 327° |
| 2026-05-05 00:44 | 14.28263 | -60.79809 | 12579 ft | 354 kts | 326° |
| 2026-05-05 00:44 | 14.30244 | -60.81251 | 12113 ft | 351 kts | 326° |
| 2026-05-05 00:45 | 14.32216 | -60.82687 | 11305 ft | 345 kts | 327° |
| 2026-05-05 00:45 | 14.33993 | -60.84327 | 10488 ft | 343 kts | 308° |
| 2026-05-05 00:45 | 14.35220 | -60.86423 | 9662 ft | 340 kts | 296° |
| 2026-05-05 00:45 | 14.36206 | -60.88623 | 8744 ft | 336 kts | 295° |
| 2026-05-05 00:46 | 14.37158 | -60.90814 | 7882 ft | 333 kts | 294° |
| 2026-05-05 00:46 | 14.38077 | -60.92931 | 7617 ft | 311 kts | 294° |
| 2026-05-05 00:46 | 14.38939 | -60.94918 | 7151 ft | 299 kts | 294° |
| 2026-05-05 00:46 | 14.39939 | -60.96766 | 6570 ft | 290 kts | 314° |
| 2026-05-05 00:47 | 14.41479 | -60.97908 | 6398 ft | 262 kts | 339° |
| 2026-05-05 00:47 | 14.43181 | -60.98416 | 5951 ft | 251 kts | 352° |
| 2026-05-05 00:47 | 14.44895 | -60.98720 | 5413 ft | 249 kts | 354° |
| 2026-05-05 00:47 | 14.46572 | -60.98989 | 5166 ft | 236 kts | 354° |
| 2026-05-05 00:48 | 14.48135 | -60.99238 | 5015 ft | 220 kts | 354° |
| 2026-05-05 00:48 | 14.49607 | -60.99478 | 4653 ft | 212 kts | 354° |
| 2026-05-05 00:48 | 14.51068 | -60.99713 | 4131 ft | 212 kts | 354° |
| 2026-05-05 00:48 | 14.52449 | -61.00215 | 3671 ft | 214 kts | 325° |
| 2026-05-05 00:49 | 14.53364 | -61.01401 | 3187 ft | 215 kts | 299° |
| 2026-05-05 00:49 | 14.53933 | -61.02783 | 2894 ft | 209 kts | 289° |
| 2026-05-05 00:49 | 14.54349 | -61.04179 | 2654 ft | 199 kts | 287° |
| 2026-05-05 00:49 | 14.54717 | -61.05491 | 2421 ft | 181 kts | 286° |
| 2026-05-05 00:50 | 14.55000 | -61.06690 | 2165 ft | 164 kts | 275° |
| 2026-05-05 00:50 | 14.54972 | -61.07840 | 1828 ft | 159 kts | 271° |
| 2026-05-05 00:50 | 14.55326 | -61.08868 | 1598 ft | 152 kts | 312° |
| 2026-05-05 00:50 | 14.56212 | -61.09307 | 1353 ft | 139 kts | 7° |
| 2026-05-05 00:51 | 14.57012 | -61.08888 | 1273 ft | 130 kts | 58° |
| 2026-05-05 00:51 | 14.57416 | -61.08077 | 1172 ft | 129 kts | 69° |
| 2026-05-05 00:51 | 14.57766 | -61.07233 | 1037 ft | 127 kts | 70° |
| 2026-05-05 00:51 | 14.58062 | -61.06386 | 881 ft | 128 kts | 79° |
| 2026-05-05 00:52 | 14.58222 | -61.05479 | 736 ft | 130 kts | 81° |
| 2026-05-05 00:52 | 14.58382 | -61.04553 | 542 ft | 132 kts | 82° |
| 2026-05-05 00:52 | 14.58541 | -61.03623 | 390 ft | 133 kts | 78° |
| 2026-05-05 00:52 | 14.58701 | -61.02686 | 230 ft | 133 kts | 79° |
| 2026-05-05 00:53 | 14.58862 | -61.01747 | 45 ft | 133 kts | 79° |
| 2026-05-05 00:53 | 14.59009 | -61.00887 | 22 ft | 103 kts | 81° |
| 2026-05-05 00:53 | 14.59103 | -61.00334 | 16 ft | 53 kts | 80° |
| 2026-05-05 00:53 | 14.59141 | -61.00117 | 17 ft | 19 kts | 80° |
| 2026-05-05 00:54 | 14.59169 | -61.00027 | 20 ft | 9 kts | 41° |
| 2026-05-05 00:54 | 14.59224 | -61.00027 | 20 ft | 8 kts | 349° |
| 2026-05-05 00:54 | 14.59275 | -61.00037 | 20 ft | 7 kts | 349° |
| 2026-05-05 00:54 | 14.59321 | -61.00046 | 20 ft | 7 kts | 349° |
| 2026-05-05 00:55 | 14.59366 | -61.00060 | 21 ft | 7 kts | 336° |
| 2026-05-05 00:55 | 14.59414 | -61.00057 | 18 ft | 7 kts | 22° |
| 2026-05-05 00:55 | 14.59450 | -61.00043 | 19 ft | 4 kts | 20° |
| 2026-05-05 00:55 | 14.59454 | -61.00041 | 18 ft | 0 kts | 20° |